createdAt,value
2022-09-12T00:01:11.093Z,15.23
2022-09-12T00:03:38.960Z,15.24
2022-09-12T00:06:22.883Z,15.21
2022-09-12T00:08:51.332Z,15.21
2022-09-12T00:11:18.399Z,15.22
2022-09-12T00:13:45.224Z,15.18
2022-09-12T00:16:21.984Z,15.19
2022-09-12T00:18:49.357Z,15.19
2022-09-12T00:21:17.578Z,15.21
2022-09-12T00:23:45.629Z,15.19
2022-09-12T00:26:13.557Z,15.21
2022-09-12T00:28:41.949Z,15.22
2022-09-12T00:31:14.442Z,15.21
2022-09-12T00:33:42.956Z,15.21
2022-09-12T00:36:12.858Z,15.21
2022-09-12T00:38:42.157Z,15.21
2022-09-12T00:41:20.532Z,15.22
2022-09-12T00:43:51.892Z,15.21
2022-09-12T00:46:36.268Z,15.22
2022-09-12T00:49:08.079Z,15.22
2022-09-12T00:51:37.833Z,15.21
2022-09-12T00:54:09.933Z,15.21
2022-09-12T00:56:41.157Z,15.22
2022-09-12T00:59:31.509Z,15.22
2022-09-12T01:01:58.665Z,15.25
2022-09-12T01:04:28.074Z,15.25
2022-09-12T01:06:58.680Z,15.25
2022-09-12T01:09:25.846Z,15.26
2022-09-12T01:11:53.705Z,15.25
2022-09-12T01:14:21.004Z,15.28
2022-09-12T01:16:49.945Z,15.28
2022-09-12T01:19:54.164Z,15.29
2022-09-12T01:22:49.989Z,15.27
2022-09-12T01:25:38.008Z,15.28
2022-09-12T01:28:39.596Z,15.30
2022-09-12T01:31:13.625Z,15.28
2022-09-12T01:33:56.621Z,15.29
2022-09-12T01:37:04.886Z,15.29
2022-09-12T01:39:48.766Z,15.28
2022-09-12T01:42:47.056Z,15.30
2022-09-12T01:45:23.855Z,15.30
2022-09-12T01:47:59.768Z,15.30
2022-09-12T01:50:32.309Z,15.29
2022-09-12T01:53:12.949Z,15.28
2022-09-12T01:55:52.309Z,15.29
2022-09-12T01:58:27.113Z,15.29
2022-09-12T02:01:09.323Z,15.30
2022-09-12T02:04:09.094Z,15.31
2022-09-12T02:06:52.400Z,15.32
2022-09-12T02:09:28.411Z,15.30
2022-09-12T02:11:59.044Z,15.30
2022-09-12T02:14:32.513Z,15.31
2022-09-12T02:17:07.480Z,15.30
2022-09-12T02:19:39.387Z,15.30
2022-09-12T02:22:07.931Z,15.29
2022-09-12T02:24:42.331Z,15.29
2022-09-12T02:27:28.106Z,15.31
2022-09-12T02:29:55.169Z,15.31
2022-09-12T02:32:36.405Z,15.31
2022-09-12T02:35:14.577Z,15.29
2022-09-12T02:37:53.218Z,15.29
2022-09-12T02:40:20.257Z,15.28
2022-09-12T02:42:47.150Z,15.30
2022-09-12T02:45:14.055Z,15.30
2022-09-12T02:47:56.385Z,15.29
2022-09-12T02:50:23.722Z,15.30
2022-09-12T02:52:53.793Z,15.31
2022-09-12T02:55:20.812Z,15.31
2022-09-12T02:57:47.556Z,15.28
2022-09-12T03:00:14.804Z,15.31
2022-09-12T03:03:16.998Z,15.30
2022-09-12T03:05:49.943Z,15.29
2022-09-12T03:08:38.797Z,15.29
2022-09-12T03:11:32.529Z,15.29
2022-09-12T03:14:17.245Z,15.28
2022-09-12T03:17:04.453Z,15.28
2022-09-12T03:19:43.141Z,15.27
2022-09-12T03:22:32.886Z,15.26
2022-09-12T03:25:15.768Z,15.27
2022-09-12T03:28:07.403Z,15.25
2022-09-12T03:30:46.083Z,15.25
2022-09-12T03:33:23.373Z,15.25
2022-09-12T03:35:51.668Z,15.24
2022-09-12T03:38:19.141Z,15.24
2022-09-12T03:40:49.316Z,15.24
2022-09-12T03:43:18.321Z,15.22
2022-09-12T03:45:45.113Z,15.21
2022-09-12T03:48:12.113Z,15.21
2022-09-12T03:50:38.869Z,15.19
2022-09-12T03:53:05.683Z,15.18
2022-09-12T03:55:32.578Z,15.17
2022-09-12T03:57:59.537Z,15.18
2022-09-12T04:00:26.331Z,15.18
2022-09-12T04:02:57.291Z,15.18
2022-09-12T04:05:25.253Z,15.19
2022-09-12T04:07:52.666Z,15.21
2022-09-12T04:10:19.493Z,15.19
2022-09-12T04:12:46.260Z,15.19
2022-09-12T04:15:13.252Z,15.17
2022-09-12T04:17:40.022Z,15.18
2022-09-12T04:20:07.416Z,15.21
2022-09-12T04:22:34.237Z,15.18
2022-09-12T04:25:01.180Z,15.18
2022-09-12T04:27:28.288Z,15.21
2022-09-12T04:29:56.410Z,15.19
2022-09-12T04:32:23.328Z,15.18
2022-09-12T04:34:50.222Z,15.19
2022-09-12T04:37:17.064Z,15.17
2022-09-12T04:39:43.988Z,15.17
2022-09-12T04:42:10.803Z,15.18
2022-09-12T04:44:37.712Z,15.15
2022-09-12T04:47:04.576Z,15.17
2022-09-12T04:49:31.673Z,15.16
2022-09-12T04:51:58.590Z,15.16
2022-09-12T04:54:26.044Z,15.15
2022-09-12T04:56:54.830Z,15.11
2022-09-12T04:59:22.456Z,15.12
2022-09-12T05:01:49.623Z,15.12
2022-09-12T05:04:16.611Z,15.12
2022-09-12T05:06:44.217Z,15.10
2022-09-12T05:09:12.705Z,15.10
2022-09-12T05:12:03.328Z,15.09
2022-09-12T05:14:28.450Z,15.09
2022-09-12T05:16:59.783Z,15.08
2022-09-12T05:19:28.148Z,15.04
2022-09-12T05:21:54.896Z,15.04
2022-09-12T05:24:22.235Z,15.03
2022-09-12T05:26:48.984Z,15.02
2022-09-12T05:29:16.409Z,15.01
2022-09-12T05:31:43.346Z,15.01
2022-09-12T05:34:10.419Z,15.01
2022-09-12T05:36:37.652Z,15.00
2022-09-12T05:39:04.867Z,14.99
2022-09-12T05:41:34.332Z,14.99
2022-09-12T05:44:03.616Z,14.99
2022-09-12T05:46:32.421Z,14.97
2022-09-12T05:49:04.801Z,14.98
2022-09-12T05:51:38.294Z,14.96
2022-09-12T05:54:06.576Z,14.95
2022-09-12T05:56:37.117Z,14.96
2022-09-12T05:59:06.556Z,14.95
2022-09-12T06:01:35.220Z,14.95
2022-09-12T06:04:04.656Z,14.94
2022-09-12T06:06:33.239Z,14.95
2022-09-12T06:09:01.907Z,14.94
2022-09-12T06:11:31.582Z,14.94
2022-09-12T06:13:59.361Z,14.91
2022-09-12T06:16:29.186Z,14.92
2022-09-12T06:19:00.936Z,14.94
2022-09-12T06:21:28.939Z,14.93
2022-09-12T06:23:55.889Z,14.93
2022-09-12T06:26:25.635Z,14.95
2022-09-12T06:28:54.437Z,14.93
2022-09-12T06:31:25.255Z,14.93
2022-09-12T06:33:53.822Z,14.96
2022-09-12T06:36:32.774Z,14.96
2022-09-12T06:39:06.280Z,14.95
2022-09-12T06:41:33.665Z,14.94
2022-09-12T06:44:01.824Z,14.95
2022-09-12T06:46:29.239Z,14.96
2022-09-12T06:48:56.965Z,14.96
2022-09-12T06:51:24.615Z,14.98
2022-09-12T06:53:52.351Z,14.97
2022-09-12T06:56:21.372Z,14.96
2022-09-12T06:58:49.955Z,14.97
2022-09-12T07:01:19.544Z,14.99
2022-09-12T07:03:52.388Z,14.98
2022-09-12T07:06:21.968Z,14.99
2022-09-12T07:08:48.923Z,14.97
2022-09-12T07:11:20.173Z,14.98
2022-09-12T07:13:49.827Z,15.01
2022-09-12T07:16:19.608Z,15.01
2022-09-12T07:18:58.667Z,14.98
2022-09-12T07:21:25.821Z,14.99
2022-09-12T07:23:55.396Z,14.99
2022-09-12T07:26:22.243Z,14.99
2022-09-12T07:28:54.174Z,15.02
2022-09-12T07:31:23.773Z,14.99
2022-09-12T07:33:54.641Z,14.98
2022-09-12T07:36:24.689Z,14.99
2022-09-12T07:38:57.528Z,14.97
2022-09-12T07:41:30.034Z,14.98
2022-09-12T07:43:59.103Z,14.99
2022-09-12T07:46:27.523Z,14.99
2022-09-12T07:48:56.804Z,14.96
2022-09-12T07:51:25.274Z,14.96
2022-09-12T07:53:52.197Z,14.96
2022-09-12T07:56:20.034Z,14.95
2022-09-12T07:58:47.677Z,14.94
2022-09-12T08:01:19.131Z,14.94
2022-09-12T08:03:48.237Z,14.97
2022-09-12T08:06:20.320Z,14.95
2022-09-12T08:08:48.436Z,14.94
2022-09-12T08:11:17.156Z,14.95
2022-09-12T08:13:44.930Z,14.93
2022-09-12T08:16:21.127Z,14.96
2022-09-12T08:18:48.723Z,14.97
2022-09-12T08:21:18.307Z,15.00
2022-09-12T08:23:45.459Z,15.03
2022-09-12T08:26:13.136Z,15.03
2022-09-12T08:28:41.097Z,15.04
2022-09-12T08:31:12.002Z,15.04
2022-09-12T08:33:39.096Z,15.08
2022-09-12T08:36:11.004Z,15.09
2022-09-12T08:38:39.725Z,15.11
2022-09-12T08:41:18.642Z,15.16
2022-09-12T08:43:52.073Z,15.19
2022-09-12T08:46:29.052Z,15.17
2022-09-12T08:48:58.473Z,15.11
2022-09-12T08:51:26.212Z,15.14
2022-09-12T08:53:56.449Z,15.18
2022-09-12T08:56:28.435Z,15.19
2022-09-12T08:58:57.877Z,15.16
2022-09-12T09:01:32.810Z,15.12
2022-09-12T09:04:14.448Z,15.11
2022-09-12T09:07:01.532Z,15.07
2022-09-12T09:09:43.425Z,15.04
2022-09-12T09:12:21.965Z,15.04
2022-09-12T09:14:56.567Z,15.09
2022-09-12T09:17:30.077Z,15.09
2022-09-12T09:20:12.421Z,15.10
2022-09-12T09:22:42.219Z,15.08
2022-09-12T09:25:23.037Z,15.04
2022-09-12T09:28:06.064Z,15.02
2022-09-12T09:30:36.062Z,15.04
2022-09-12T09:33:05.287Z,15.07
2022-09-12T09:35:38.951Z,15.08
2022-09-12T09:38:15.396Z,15.07
2022-09-12T09:40:50.008Z,15.07
2022-09-12T09:43:28.948Z,15.07
2022-09-12T09:45:57.904Z,15.08
2022-09-12T09:48:33.554Z,15.09
2022-09-12T09:51:03.177Z,15.07
2022-09-12T09:53:51.869Z,15.11
2022-09-12T09:56:27.875Z,15.11
2022-09-12T09:58:54.918Z,15.10
2022-09-12T10:01:22.293Z,15.11
2022-09-12T10:03:54.273Z,15.12
2022-09-12T10:06:21.021Z,15.14
2022-09-12T10:08:49.579Z,15.17
2022-09-12T10:11:16.368Z,15.22
2022-09-12T10:14:04.610Z,15.25
2022-09-12T10:16:48.316Z,15.24
2022-09-12T10:19:26.715Z,15.27
2022-09-12T10:21:56.967Z,15.28
2022-09-12T10:24:47.198Z,15.28
2022-09-12T10:27:20.630Z,15.27
2022-09-12T10:30:14.613Z,15.31
2022-09-12T10:32:45.095Z,15.29
2022-09-12T10:35:24.011Z,15.27
2022-09-12T10:38:02.414Z,15.29
2022-09-12T10:40:37.774Z,15.28
2022-09-12T10:43:17.799Z,15.30
2022-09-12T10:45:44.705Z,15.32
2022-09-12T10:48:31.988Z,15.36
2022-09-12T10:51:00.148Z,15.37
2022-09-12T10:53:33.620Z,15.38
2022-09-12T10:56:28.031Z,15.39
2022-09-12T10:59:21.735Z,15.40
2022-09-12T11:02:00.400Z,15.42
2022-09-12T11:04:58.114Z,15.41
2022-09-12T11:07:46.879Z,15.36
2022-09-12T11:10:43.766Z,15.36
2022-09-12T11:13:25.545Z,15.33
2022-09-12T11:16:05.911Z,15.38
2022-09-12T11:19:03.758Z,15.41
2022-09-12T11:21:30.628Z,15.45
2022-09-12T11:23:57.366Z,15.51
2022-09-12T11:26:34.242Z,15.53
2022-09-12T11:29:01.002Z,15.52
2022-09-12T11:31:50.397Z,15.52
2022-09-12T11:34:36.872Z,15.55
2022-09-12T11:37:10.433Z,15.54
2022-09-12T11:39:44.813Z,15.56
2022-09-12T11:42:18.282Z,15.55
2022-09-12T11:44:50.121Z,15.56
2022-09-12T11:47:18.727Z,15.56
2022-09-12T11:49:49.984Z,15.58
2022-09-12T11:52:27.055Z,15.59
2022-09-12T11:55:03.879Z,15.61
2022-09-12T11:57:53.098Z,15.59
2022-09-12T12:00:24.649Z,15.58
2022-09-12T12:03:00.775Z,15.59
2022-09-12T12:05:47.880Z,15.55
2022-09-12T12:08:14.840Z,15.55
2022-09-12T12:10:44.279Z,15.54
2022-09-12T12:13:20.037Z,15.58
2022-09-12T12:16:11.526Z,15.58
2022-09-12T12:18:40.171Z,15.57
2022-09-12T12:21:34.737Z,15.59
2022-09-12T12:24:07.508Z,15.62
2022-09-12T12:26:40.676Z,15.63
2022-09-12T12:29:13.415Z,15.65
2022-09-12T12:31:59.136Z,15.65
2022-09-12T12:34:30.887Z,15.63
2022-09-12T12:36:59.205Z,15.67
2022-09-12T12:39:32.123Z,15.67
2022-09-12T12:42:03.049Z,15.67
2022-09-12T12:44:45.179Z,15.67
2022-09-12T12:47:20.742Z,15.66
2022-09-12T12:50:04.445Z,15.68
2022-09-12T12:52:40.724Z,15.69
2022-09-12T12:55:17.202Z,15.68
2022-09-12T12:57:51.578Z,15.66
2022-09-12T13:00:21.388Z,15.69
2022-09-12T13:02:58.057Z,15.71
2022-09-12T13:05:27.224Z,15.72
2022-09-12T13:08:03.726Z,15.72
2022-09-12T13:10:31.288Z,15.72
2022-09-12T13:13:02.046Z,15.73
2022-09-12T13:15:50.919Z,15.73
2022-09-12T13:18:25.462Z,15.70
2022-09-12T13:20:59.888Z,15.69
2022-09-12T13:23:31.646Z,15.70
2022-09-12T13:26:00.933Z,15.68
2022-09-12T13:28:31.292Z,15.70
2022-09-12T13:30:58.560Z,15.72
2022-09-12T13:33:34.309Z,15.72
2022-09-12T13:36:29.205Z,15.72
2022-09-12T13:39:20.209Z,15.74
2022-09-12T13:41:56.225Z,15.76
2022-09-12T13:44:24.720Z,15.76
2022-09-12T13:46:52.476Z,15.81
2022-09-12T13:49:37.632Z,15.81
2022-09-12T13:52:24.767Z,15.82
2022-09-12T13:54:55.006Z,15.83
2022-09-12T13:57:31.595Z,15.85
2022-09-12T13:59:59.991Z,15.86
2022-09-12T14:02:28.890Z,15.86
2022-09-12T14:05:11.485Z,15.88
2022-09-12T14:07:54.473Z,15.89
2022-09-12T14:10:24.086Z,15.90
2022-09-12T14:12:52.860Z,15.93
2022-09-12T14:15:26.575Z,15.93
2022-09-12T14:17:56.606Z,15.92
2022-09-12T14:20:24.381Z,15.95
2022-09-12T14:22:52.581Z,15.92
2022-09-12T14:25:25.568Z,15.93
2022-09-12T14:27:54.958Z,15.91
2022-09-12T14:30:31.981Z,15.92
2022-09-12T14:33:22.259Z,15.93
2022-09-12T14:35:52.017Z,15.92
2022-09-12T14:38:18.960Z,15.90
2022-09-12T14:40:59.950Z,15.89
2022-09-12T14:43:34.060Z,15.86
2022-09-12T14:46:07.854Z,15.88
2022-09-12T14:48:46.796Z,15.85
2022-09-12T14:51:26.112Z,15.84
2022-09-12T14:53:53.234Z,15.84
2022-09-12T14:56:37.045Z,15.85
2022-09-12T14:59:30.972Z,15.87
2022-09-12T15:02:22.608Z,15.85
2022-09-12T15:04:52.545Z,15.84
2022-09-12T15:07:29.756Z,15.86
2022-09-12T15:09:59.037Z,15.88
2022-09-12T15:12:26.453Z,15.86
2022-09-12T15:14:54.239Z,15.87
2022-09-12T15:17:21.031Z,15.87
2022-09-12T15:19:48.130Z,15.85
2022-09-12T15:22:15.156Z,15.86
2022-09-12T15:24:42.013Z,15.85
2022-09-12T15:27:11.974Z,15.82
2022-09-12T15:29:39.610Z,15.77
2022-09-12T15:32:06.881Z,15.73
2022-09-12T15:34:33.896Z,15.72
2022-09-12T15:37:00.950Z,15.68
2022-09-12T15:39:27.903Z,15.69
2022-09-12T15:41:54.777Z,15.72
2022-09-12T15:44:23.802Z,15.72
2022-09-12T15:46:50.633Z,15.72
2022-09-12T15:49:17.572Z,15.70
2022-09-12T15:51:44.445Z,15.70
2022-09-12T15:54:15.179Z,15.70
2022-09-12T15:56:42.096Z,15.69
2022-09-12T15:59:09.099Z,15.69
2022-09-12T16:01:35.990Z,15.69
2022-09-12T16:04:03.881Z,15.69
2022-09-12T16:06:37.309Z,15.68
2022-09-12T16:09:04.493Z,15.66
2022-09-12T16:11:31.280Z,15.65
2022-09-12T16:13:58.369Z,15.63
2022-09-12T16:16:25.361Z,15.63
2022-09-12T16:18:52.324Z,15.65
2022-09-12T16:21:19.184Z,15.61
2022-09-12T16:23:47.415Z,15.63
2022-09-12T16:26:15.040Z,15.61
2022-09-12T16:28:42.444Z,15.60
2022-09-12T16:31:12.901Z,15.59
2022-09-12T16:33:40.701Z,15.59
2022-09-12T16:36:12.981Z,15.60
2022-09-12T16:38:51.192Z,15.62
2022-09-12T16:41:20.037Z,15.61
2022-09-12T16:43:47.628Z,15.61
2022-09-12T16:46:19.075Z,15.63
2022-09-12T16:48:52.670Z,15.66
2022-09-12T16:51:23.005Z,15.66
2022-09-12T16:53:50.487Z,15.67
2022-09-12T16:56:17.615Z,15.69
2022-09-12T16:58:45.310Z,15.68
2022-09-12T17:01:23.842Z,15.70
2022-09-12T17:03:55.277Z,15.65
2022-09-12T17:06:22.463Z,15.66
2022-09-12T17:08:51.060Z,15.63
2022-09-12T17:11:20.629Z,15.62
2022-09-12T17:14:06.467Z,15.59
2022-09-12T17:16:39.570Z,15.58
2022-09-12T17:19:09.204Z,15.58
2022-09-12T17:21:36.567Z,15.56
2022-09-12T17:24:04.818Z,15.58
2022-09-12T17:26:31.729Z,15.57
2022-09-12T17:28:58.707Z,15.59
2022-09-12T17:31:26.831Z,15.58
2022-09-12T17:33:58.441Z,15.58
2022-09-12T17:36:26.666Z,15.57
2022-09-12T17:38:54.276Z,15.57
2022-09-12T17:41:27.582Z,15.54
2022-09-12T17:43:57.250Z,15.55
2022-09-12T17:46:38.781Z,15.53
2022-09-12T17:49:08.181Z,15.54
2022-09-12T17:51:35.618Z,15.54
2022-09-12T17:54:06.115Z,15.52
2022-09-12T17:56:34.619Z,15.51
2022-09-12T17:59:02.020Z,15.48
2022-09-12T18:01:48.187Z,15.49
2022-09-12T18:04:15.804Z,15.46
2022-09-12T18:06:47.992Z,15.45
2022-09-12T18:09:18.008Z,15.42
2022-09-12T18:11:45.157Z,15.38
2022-09-12T18:14:14.236Z,15.33
2022-09-12T18:16:43.196Z,15.34
2022-09-12T18:19:11.247Z,15.34
2022-09-12T18:21:38.492Z,15.27
2022-09-12T18:24:05.769Z,15.27
2022-09-12T18:26:33.202Z,15.26
2022-09-12T18:29:00.089Z,15.24
2022-09-12T18:31:29.726Z,15.24
2022-09-12T18:33:57.288Z,15.24
2022-09-12T18:36:24.162Z,15.21
2022-09-12T18:38:51.197Z,15.19
2022-09-12T18:41:22.797Z,15.21
2022-09-12T18:43:53.380Z,15.18
2022-09-12T18:46:20.314Z,15.17
2022-09-12T18:48:47.499Z,15.17
2022-09-12T18:51:17.991Z,15.15
2022-09-12T18:53:57.001Z,15.14
2022-09-12T18:56:26.475Z,15.15
2022-09-12T18:58:56.508Z,15.14
2022-09-12T19:01:29.266Z,15.12
2022-09-12T19:03:56.904Z,15.09
2022-09-12T19:06:28.619Z,15.07
2022-09-12T19:08:57.408Z,15.04
2022-09-12T19:11:26.114Z,15.07
2022-09-12T19:13:54.313Z,15.03
2022-09-12T19:16:24.001Z,14.99
2022-09-12T19:18:52.424Z,14.99
2022-09-12T19:21:24.638Z,14.98
2022-09-12T19:23:53.904Z,14.96
2022-09-12T19:26:21.295Z,14.96
2022-09-12T19:28:48.556Z,14.92
2022-09-12T19:31:19.053Z,14.93
2022-09-12T19:33:46.990Z,14.92
2022-09-12T19:36:40.799Z,14.89
2022-09-12T19:39:04.103Z,14.91
2022-09-12T19:41:31.205Z,14.91
2022-09-12T19:43:58.321Z,14.91
2022-09-12T19:46:26.761Z,14.87
2022-09-12T19:48:54.026Z,14.88
2022-09-12T19:51:22.183Z,14.91
2022-09-12T19:53:50.389Z,14.85
2022-09-12T19:56:17.326Z,14.85
2022-09-12T19:58:46.758Z,14.84
2022-09-12T20:01:18.907Z,14.86
2022-09-12T20:03:46.514Z,14.85
2022-09-12T20:06:17.738Z,14.81
2022-09-12T20:08:45.772Z,14.82
2022-09-12T20:11:16.856Z,14.78
2022-09-12T20:13:44.988Z,14.80
2022-09-12T20:16:21.399Z,14.80
2022-09-12T20:18:56.707Z,14.74
2022-09-12T20:21:25.737Z,14.74
2022-09-12T20:23:52.906Z,14.67
2022-09-12T20:26:20.501Z,14.65
2022-09-12T20:28:47.865Z,14.63
2022-09-12T20:31:16.127Z,14.65
2022-09-12T20:33:44.684Z,14.65
2022-09-12T20:36:16.325Z,14.60
2022-09-12T20:38:50.635Z,14.59
2022-09-12T20:41:18.966Z,14.64
2022-09-12T20:43:49.125Z,14.63
2022-09-12T20:46:20.992Z,14.64
2022-09-12T20:48:49.354Z,14.60
2022-09-12T20:51:16.764Z,14.60
2022-09-12T20:53:43.711Z,14.60
2022-09-12T20:56:10.485Z,14.57
2022-09-12T20:58:41.693Z,14.56
2022-09-12T21:01:11.821Z,14.54
2022-09-12T21:03:39.640Z,14.56
2022-09-12T21:06:07.649Z,14.57
2022-09-12T21:08:35.645Z,14.56
2022-09-12T21:11:02.501Z,14.55
2022-09-12T21:13:29.288Z,14.54
2022-09-12T21:16:16.842Z,14.51
2022-09-12T21:18:44.644Z,14.44
2022-09-12T21:21:13.162Z,14.49
2022-09-12T21:23:40.212Z,14.45
2022-09-12T21:26:07.891Z,14.49
2022-09-12T21:28:34.817Z,14.51
2022-09-12T21:31:01.734Z,14.50
2022-09-12T21:33:28.670Z,14.52
2022-09-12T21:35:55.507Z,14.53
2022-09-12T21:38:22.416Z,14.55
2022-09-12T21:40:49.512Z,14.54
2022-09-12T21:43:16.432Z,14.56
2022-09-12T21:45:43.246Z,14.56
2022-09-12T21:48:10.212Z,14.58
2022-09-12T21:50:36.963Z,14.58
2022-09-12T21:53:03.969Z,14.62
2022-09-12T21:55:31.210Z,14.60
2022-09-12T21:57:58.052Z,14.60
2022-09-12T22:00:24.955Z,14.60
2022-09-12T22:02:51.816Z,14.62
2022-09-12T22:05:19.630Z,14.60
2022-09-12T22:07:46.764Z,14.60
2022-09-12T22:10:13.569Z,14.63
2022-09-12T22:12:45.361Z,14.63
2022-09-12T22:15:38.819Z,14.62
2022-09-12T22:18:00.638Z,14.63
2022-09-12T22:20:27.505Z,14.59
2022-09-12T22:23:12.783Z,14.58
2022-09-12T22:25:39.931Z,14.58
2022-09-12T22:28:07.108Z,14.60
2022-09-12T22:30:33.979Z,14.59
2022-09-12T22:33:00.763Z,14.56
2022-09-12T22:35:27.722Z,14.56
2022-09-12T22:37:54.481Z,14.55
2022-09-12T22:40:21.415Z,14.53
2022-09-12T22:42:52.024Z,14.52
2022-09-12T22:45:19.296Z,14.51
2022-09-12T22:47:46.365Z,14.50
2022-09-12T22:50:13.257Z,14.49
2022-09-12T22:52:40.492Z,14.52
2022-09-12T22:55:07.837Z,14.52
2022-09-12T22:57:34.824Z,14.51
2022-09-12T23:00:02.212Z,14.53
2022-09-12T23:02:29.693Z,14.52
2022-09-12T23:04:56.544Z,14.50
2022-09-12T23:07:23.342Z,14.51
2022-09-12T23:09:50.164Z,14.50
2022-09-12T23:12:17.118Z,14.49
2022-09-12T23:14:44.123Z,14.48
2022-09-12T23:17:10.977Z,14.47
2022-09-12T23:19:37.864Z,14.48
2022-09-12T23:22:04.715Z,14.47
2022-09-12T23:24:31.592Z,14.49
2022-09-12T23:26:59.604Z,14.49
2022-09-12T23:29:27.208Z,14.43
2022-09-12T23:31:53.998Z,14.47
2022-09-12T23:34:20.902Z,14.44
2022-09-12T23:36:47.689Z,14.48
2022-09-12T23:39:14.494Z,14.45
2022-09-12T23:41:41.285Z,14.47
2022-09-12T23:44:08.139Z,14.45
2022-09-12T23:46:34.948Z,14.44
2022-09-12T23:49:01.784Z,14.48
2022-09-12T23:51:28.547Z,14.45
2022-09-12T23:53:55.437Z,14.48
2022-09-12T23:56:22.291Z,14.45
2022-09-12T23:58:49.301Z,14.49
